createdAt,value
2017-06-03T00:00:22.604Z,40.30
2017-06-03T00:02:50.493Z,40.50
2017-06-03T00:05:18.012Z,40.50
2017-06-03T00:07:45.910Z,39.90
2017-06-03T00:10:13.493Z,39.90
2017-06-03T00:12:41.041Z,40.30
2017-06-03T00:15:09.051Z,40.30
2017-06-03T00:17:36.546Z,40.90
2017-06-03T00:20:04.074Z,40.70
2017-06-03T00:22:31.607Z,41.00
2017-06-03T00:24:59.093Z,40.70
2017-06-03T00:27:26.708Z,41.80
2017-06-03T00:29:54.195Z,41.90
2017-06-03T00:32:21.692Z,40.90
2017-06-03T00:34:50.209Z,42.10
2017-06-03T00:37:17.698Z,42.10
2017-06-03T00:39:45.192Z,42.50
2017-06-03T00:42:12.712Z,41.50
2017-06-03T00:44:40.215Z,41.90
2017-06-03T00:47:07.716Z,42.10
2017-06-03T00:49:35.258Z,43.00
2017-06-03T00:52:02.751Z,43.10
2017-06-03T00:54:30.243Z,44.30
2017-06-03T00:56:57.760Z,43.30
2017-06-03T00:59:25.257Z,43.30
2017-06-03T01:01:52.745Z,43.90
2017-06-03T01:04:20.287Z,44.60
2017-06-03T01:06:47.791Z,43.90
2017-06-03T01:09:15.281Z,43.30
2017-06-03T01:11:43.223Z,45.30
2017-06-03T01:14:10.724Z,45.30
2017-06-03T01:16:38.214Z,44.40
2017-06-03T01:19:05.741Z,45.30
2017-06-03T01:21:33.217Z,44.90
2017-06-03T01:24:00.709Z,45.00
2017-06-03T01:26:28.323Z,46.10
2017-06-03T01:28:55.828Z,45.20
2017-06-03T01:31:23.316Z,45.30
2017-06-03T01:33:51.323Z,46.40
2017-06-03T01:36:18.808Z,46.40
2017-06-03T01:38:46.300Z,47.00
2017-06-03T01:41:13.836Z,47.40
2017-06-03T01:43:41.327Z,47.00
2017-06-03T01:46:08.818Z,46.70
2017-06-03T01:48:36.348Z,46.70
2017-06-03T01:51:03.845Z,47.00
2017-06-03T01:53:31.875Z,47.50
2017-06-03T01:55:59.409Z,47.30
2017-06-03T01:58:26.899Z,47.10
2017-06-03T02:00:54.399Z,47.10
2017-06-03T02:03:21.924Z,47.50
2017-06-03T02:05:49.414Z,47.70
2017-06-03T02:08:16.945Z,47.30
2017-06-03T02:10:44.508Z,48.70
2017-06-03T02:13:11.992Z,48.10
2017-06-03T02:15:39.480Z,48.10
2017-06-03T02:18:07.008Z,48.60
2017-06-03T02:20:34.564Z,49.00
2017-06-03T02:23:02.061Z,48.60
2017-06-03T02:25:30.373Z,48.30
2017-06-03T02:27:58.250Z,48.90
2017-06-03T02:30:25.763Z,48.90
2017-06-03T02:32:53.332Z,48.40
2017-06-03T02:35:20.825Z,48.70
2017-06-03T02:37:48.356Z,48.60
2017-06-03T02:40:15.920Z,48.70
2017-06-03T02:42:43.421Z,48.90
2017-06-03T02:45:10.921Z,48.60
2017-06-03T02:47:38.467Z,48.70
2017-06-03T02:50:06.367Z,48.70
2017-06-03T02:52:33.868Z,48.70
2017-06-03T02:55:01.396Z,49.80
2017-06-03T02:57:28.917Z,49.00
2017-06-03T02:59:56.411Z,49.00
2017-06-03T03:02:23.988Z,49.80
2017-06-03T03:04:51.486Z,48.90
2017-06-03T03:07:19.371Z,49.50
2017-06-03T03:09:46.930Z,49.50
2017-06-03T03:12:14.431Z,49.20
2017-06-03T03:14:41.917Z,49.00
2017-06-03T03:17:09.850Z,48.90
2017-06-03T03:19:37.341Z,48.90
2017-06-03T03:22:05.233Z,48.90
2017-06-03T03:24:32.776Z,48.90
2017-06-03T03:27:00.617Z,48.60
2017-06-03T03:29:28.103Z,49.30
2017-06-03T03:31:56.320Z,48.70
2017-06-03T03:34:23.804Z,48.70
2017-06-03T03:36:51.550Z,49.30
2017-06-03T03:39:19.106Z,49.90
2017-06-03T03:41:46.600Z,48.70
2017-06-03T03:44:14.487Z,49.30
2017-06-03T03:46:42.149Z,49.30
2017-06-03T03:49:09.632Z,49.20
2017-06-03T03:51:37.137Z,49.50
2017-06-03T03:54:04.668Z,49.50
2017-06-03T03:56:32.171Z,49.90
2017-06-03T03:59:00.068Z,48.60
2017-06-03T04:01:28.572Z,48.60
2017-06-03T04:03:56.074Z,49.60
2017-06-03T04:06:23.576Z,49.20
2017-06-03T04:08:51.131Z,48.90
2017-06-03T04:11:18.622Z,49.20
2017-06-03T04:13:46.110Z,48.90
2017-06-03T04:16:14.060Z,48.70
2017-06-03T04:18:41.559Z,48.70
2017-06-03T04:21:09.056Z,50.20
2017-06-03T04:23:36.640Z,49.90
2017-06-03T04:26:04.154Z,50.40
2017-06-03T04:28:31.656Z,49.80
2017-06-03T04:30:59.187Z,50.70
2017-06-03T04:33:26.688Z,50.40
2017-06-03T04:35:54.573Z,50.40
2017-06-03T04:38:22.111Z,50.40
2017-06-03T04:40:49.597Z,50.10
2017-06-03T04:43:17.083Z,51.20
2017-06-03T04:45:44.587Z,50.20
2017-06-03T04:48:13.236Z,50.10
2017-06-03T04:50:40.728Z,50.10
2017-06-03T04:53:08.767Z,50.20
2017-06-03T04:55:36.261Z,50.20
2017-06-03T04:58:04.483Z,50.20
2017-06-03T05:00:31.989Z,50.20
2017-06-03T05:02:59.703Z,49.50
2017-06-03T05:05:27.187Z,50.10
2017-06-03T05:07:54.704Z,49.90
2017-06-03T05:10:22.198Z,49.60
2017-06-03T05:12:49.687Z,49.60
2017-06-03T05:15:17.604Z,49.30
2017-06-03T05:17:45.092Z,49.30
2017-06-03T05:20:12.594Z,49.50
2017-06-03T05:22:40.163Z,49.50
2017-06-03T05:25:07.650Z,48.60
2017-06-03T05:27:35.366Z,48.30
2017-06-03T05:30:02.905Z,48.70
2017-06-03T05:32:30.872Z,48.10
2017-06-03T05:34:58.380Z,48.10
2017-06-03T05:37:25.919Z,48.10
2017-06-03T05:39:53.424Z,48.60
2017-06-03T05:42:20.937Z,48.40
2017-06-03T05:44:48.460Z,48.30
2017-06-03T05:47:16.353Z,47.80
2017-06-03T05:49:43.841Z,47.80
2017-06-03T05:52:11.367Z,47.70
2017-06-03T05:54:38.876Z,48.10
2017-06-03T05:57:06.383Z,47.40
2017-06-03T05:59:33.956Z,46.80
2017-06-03T06:02:01.446Z,47.30
2017-06-03T06:04:28.980Z,48.30
2017-06-03T06:06:56.523Z,46.80
2017-06-03T06:09:24.051Z,46.80
2017-06-03T06:11:51.977Z,47.30
2017-06-03T06:14:19.510Z,47.30
2017-06-03T06:16:47.028Z,46.50
2017-06-03T06:19:14.542Z,47.00
2017-06-03T06:21:42.083Z,46.80
2017-06-03T06:24:09.596Z,46.10
2017-06-03T06:26:37.581Z,45.60
2017-06-03T06:29:05.143Z,44.70
2017-06-03T06:31:32.659Z,44.40
2017-06-03T06:34:00.190Z,44.10
2017-06-03T06:39:01.953Z,42.70
2017-06-03T06:41:29.496Z,42.70
2017-06-03T06:43:56.989Z,42.10
2017-06-03T06:46:24.561Z,41.90
2017-06-03T06:48:52.125Z,42.70
2017-06-03T06:51:20.361Z,43.00
2017-06-03T06:53:47.878Z,43.30
2017-06-03T06:56:15.628Z,43.30
2017-06-03T06:58:43.212Z,43.40
2017-06-03T07:01:10.768Z,43.60
2017-06-03T07:03:38.419Z,43.00
2017-06-03T07:06:05.961Z,42.10
2017-06-03T07:11:06.720Z,41.90
2017-06-03T07:13:34.566Z,40.50
2017-06-03T07:16:04.366Z,40.60
2017-06-03T07:18:31.906Z,39.90
2017-06-03T07:20:59.820Z,38.20
2017-06-03T07:23:27.330Z,38.20
2017-06-03T07:25:54.904Z,39.10
2017-06-03T07:28:22.589Z,39.30
2017-06-03T07:30:50.091Z,39.60
2017-06-03T07:33:17.690Z,39.90
2017-06-03T07:35:45.222Z,40.30
2017-06-03T07:38:12.730Z,39.60
2017-06-03T07:40:40.302Z,39.40
2017-06-03T07:43:07.804Z,38.40
2017-06-03T07:45:35.591Z,38.80
2017-06-03T07:48:03.127Z,38.80
2017-06-03T07:50:31.013Z,37.80
2017-06-03T07:52:58.542Z,37.80
2017-06-03T07:55:26.587Z,36.30
2017-06-03T07:57:54.092Z,36.50
2017-06-03T08:00:22.019Z,34.80
2017-06-03T08:02:49.599Z,34.10
2017-06-03T08:05:17.092Z,33.40
2017-06-03T08:07:45.672Z,33.70
2017-06-03T08:10:13.258Z,34.40
2017-06-03T08:12:40.828Z,35.10
2017-06-03T08:15:08.330Z,35.30
2017-06-03T08:17:36.295Z,34.20
2017-06-03T08:20:04.579Z,33.70
2017-06-03T08:22:32.556Z,33.70
2017-06-03T08:25:00.194Z,34.70
2017-06-03T08:27:28.587Z,34.80
2017-06-03T08:29:56.162Z,34.80
2017-06-03T08:32:24.066Z,35.10
2017-06-03T08:34:51.572Z,34.20
2017-06-03T08:37:19.067Z,33.70
2017-06-03T08:39:46.837Z,34.80
2017-06-03T08:42:14.341Z,35.00
2017-06-03T08:44:42.026Z,34.80
2017-06-03T08:47:09.564Z,35.30
2017-06-03T08:49:37.169Z,34.20
2017-06-03T08:52:04.684Z,33.40
2017-06-03T08:54:32.239Z,33.70
2017-06-03T08:56:59.759Z,34.00
2017-06-03T08:59:27.262Z,34.00
2017-06-03T09:01:56.286Z,34.20
2017-06-03T09:04:23.787Z,34.20
2017-06-03T09:06:51.328Z,35.30
2017-06-03T09:09:18.862Z,33.20
2017-06-03T09:11:54.626Z,32.50
2017-06-03T09:14:22.242Z,33.10
2017-06-03T09:16:49.814Z,33.10
2017-06-03T09:19:17.393Z,33.10
2017-06-03T09:21:45.177Z,33.70
2017-06-03T09:24:12.790Z,33.80
2017-06-03T09:26:40.767Z,34.00
2017-06-03T09:29:08.324Z,34.00
2017-06-03T09:31:35.841Z,35.70
2017-06-03T09:34:03.364Z,35.00
2017-06-03T09:36:30.921Z,36.00
2017-06-03T09:38:58.409Z,36.90
2017-06-03T09:41:25.895Z,36.80
2017-06-03T09:43:53.437Z,36.20
2017-06-03T09:46:21.169Z,36.30
2017-06-03T09:48:48.674Z,36.50
2017-06-03T09:51:16.729Z,38.10
2017-06-03T09:53:44.232Z,38.10
2017-06-03T09:56:11.727Z,36.80
2017-06-03T09:58:39.255Z,39.00
2017-06-03T10:01:06.746Z,38.50
2017-06-03T10:03:34.252Z,37.20
2017-06-03T10:06:01.790Z,35.30
2017-06-03T10:08:29.325Z,35.60
2017-06-03T10:10:56.845Z,34.10
2017-06-03T10:13:24.421Z,37.40
2017-06-03T10:16:00.396Z,36.50
2017-06-03T10:18:27.971Z,38.50
2017-06-03T10:20:55.474Z,36.80
2017-06-03T10:24:55.239Z,35.10
2017-06-03T10:27:22.857Z,38.20
2017-06-03T10:29:50.360Z,34.20
2017-06-03T10:32:17.925Z,35.70
2017-06-03T10:34:45.423Z,35.90
2017-06-03T10:37:12.935Z,36.30
2017-06-03T10:39:40.473Z,34.70
2017-06-03T10:42:07.975Z,35.60
2017-06-03T10:44:35.880Z,37.20
2017-06-03T10:47:04.205Z,37.20
2017-06-03T10:49:31.699Z,39.60
2017-06-03T10:51:59.187Z,38.40
2017-06-03T10:54:26.725Z,41.90
2017-06-03T10:56:54.224Z,44.90
2017-06-03T10:59:22.157Z,44.40
2017-06-03T11:01:49.744Z,46.70
2017-06-03T11:04:17.257Z,46.40
2017-06-03T11:06:44.767Z,44.90
2017-06-03T11:09:12.448Z,47.30
2017-06-03T11:11:39.954Z,46.70
2017-06-03T11:14:07.704Z,47.10
2017-06-03T11:16:35.257Z,49.30
2017-06-03T11:19:02.753Z,50.20
2017-06-03T11:21:30.525Z,51.70
2017-06-03T11:23:58.089Z,52.70
2017-06-03T11:26:27.174Z,52.70
2017-06-03T11:28:54.679Z,53.60
2017-06-03T11:31:22.636Z,54.30
2017-06-03T11:33:50.737Z,52.60
2017-06-03T11:36:18.538Z,52.60
2017-06-03T11:38:46.112Z,54.10
2017-06-03T11:41:13.613Z,54.60
2017-06-03T11:43:41.420Z,56.10
2017-06-03T11:46:09.016Z,55.20
2017-06-03T11:48:36.517Z,54.90
2017-06-03T11:51:04.017Z,56.00
2017-06-03T11:53:31.581Z,56.00
2017-06-03T11:55:59.437Z,54.20
2017-06-03T11:58:27.022Z,56.10
2017-06-03T12:00:55.025Z,56.90
2017-06-03T12:03:23.138Z,56.90
2017-06-03T12:05:50.626Z,56.30
2017-06-03T12:08:18.568Z,57.00
2017-06-03T12:10:46.074Z,57.00
2017-06-03T12:13:13.558Z,56.60
2017-06-03T12:15:41.139Z,55.50
2017-06-03T12:18:08.643Z,57.40
2017-06-03T12:20:36.199Z,56.40
2017-06-03T12:23:03.756Z,56.70
2017-06-03T12:25:31.664Z,55.70
2017-06-03T12:27:59.175Z,55.70
2017-06-03T12:30:27.182Z,57.00
2017-06-03T12:32:54.680Z,57.00
2017-06-03T12:35:22.471Z,57.40
2017-06-03T12:37:50.126Z,57.30
2017-06-03T12:40:18.031Z,57.60
2017-06-03T12:42:45.529Z,57.60
2017-06-03T12:45:13.110Z,58.50
2017-06-03T12:47:41.013Z,58.50
2017-06-03T12:50:08.524Z,58.50
2017-06-03T12:52:36.476Z,58.80
2017-06-03T12:55:03.985Z,58.80
2017-06-03T12:57:31.479Z,58.50
2017-06-03T12:59:58.996Z,59.20
2017-06-03T13:02:26.484Z,60.00
2017-06-03T13:04:53.988Z,59.50
2017-06-03T13:07:21.931Z,57.90
2017-06-03T13:09:49.424Z,57.90
2017-06-03T13:12:17.320Z,57.70
2017-06-03T13:14:44.884Z,57.70
2017-06-03T13:17:12.394Z,57.00
2017-06-03T13:19:40.340Z,54.50
2017-06-03T13:22:08.023Z,54.30
2017-06-03T13:24:35.521Z,55.50
2017-06-03T13:27:03.103Z,55.20
2017-06-03T13:29:30.644Z,56.70
2017-06-03T13:31:58.153Z,57.00
2017-06-03T13:34:25.680Z,53.90
2017-06-03T13:36:53.260Z,53.80
2017-06-03T13:39:20.770Z,53.90
2017-06-03T13:41:48.317Z,54.90
2017-06-03T13:44:15.864Z,56.10
2017-06-03T13:46:44.101Z,56.60
2017-06-03T13:49:11.613Z,56.60
2017-06-03T13:51:39.268Z,56.70
2017-06-03T13:54:06.768Z,56.40
2017-06-03T13:56:34.297Z,56.00
2017-06-03T13:59:01.913Z,57.00
2017-06-03T14:01:29.422Z,56.10
2017-06-03T14:03:56.927Z,57.60
2017-06-03T14:06:24.465Z,56.00
2017-06-03T14:08:51.997Z,55.70
2017-06-03T14:11:19.787Z,54.80
2017-06-03T14:13:47.348Z,54.50
2017-06-03T14:16:14.900Z,54.10
2017-06-03T14:18:42.658Z,54.30
2017-06-03T14:21:10.204Z,54.30
2017-06-03T14:23:37.710Z,52.40
2017-06-03T14:26:05.509Z,53.30
2017-06-03T14:28:33.687Z,52.60
2017-06-03T14:31:01.175Z,52.00
2017-06-03T14:33:28.664Z,51.50
2017-06-03T14:35:56.395Z,50.20
2017-06-03T14:38:24.459Z,51.70
2017-06-03T14:40:51.982Z,51.50
2017-06-03T14:43:19.924Z,51.10
2017-06-03T14:45:47.495Z,51.10
2017-06-03T14:48:15.398Z,48.30
2017-06-03T14:50:42.915Z,48.30
2017-06-03T14:53:10.448Z,46.10
2017-06-03T14:55:37.947Z,45.90
2017-06-03T14:58:06.252Z,45.20
2017-06-03T15:00:33.752Z,47.40
2017-06-03T15:03:01.266Z,45.00
2017-06-03T15:05:28.947Z,45.20
2017-06-03T15:07:56.463Z,44.90
2017-06-03T15:10:24.370Z,46.70
2017-06-03T15:12:51.928Z,46.70
2017-06-03T15:15:19.547Z,43.60
2017-06-03T15:17:47.112Z,43.90
2017-06-03T15:20:15.051Z,44.70
2017-06-03T15:22:43.704Z,44.70
2017-06-03T15:25:12.167Z,45.90
2017-06-03T15:27:40.543Z,45.20
2017-06-03T15:30:08.116Z,43.90
2017-06-03T15:32:35.637Z,44.00
2017-06-03T15:35:03.582Z,41.60
2017-06-03T15:37:31.129Z,41.60
2017-06-03T15:39:59.139Z,42.80
2017-06-03T15:42:26.665Z,44.60
2017-06-03T15:44:54.234Z,41.20
2017-06-03T15:47:21.748Z,41.30
2017-06-03T15:49:49.293Z,42.70
2017-06-03T15:52:16.892Z,42.50
2017-06-03T15:54:44.417Z,42.70
2017-06-03T15:57:12.217Z,42.20
2017-06-03T15:59:39.891Z,40.70
2017-06-03T16:02:07.451Z,41.50
2017-06-03T16:04:35.289Z,42.40
2017-06-03T16:07:02.799Z,43.30
2017-06-03T16:09:30.679Z,42.50
2017-06-03T16:11:58.220Z,42.50
2017-06-03T16:14:26.120Z,43.90
2017-06-03T16:16:53.623Z,43.90
2017-06-03T16:19:21.161Z,43.70
2017-06-03T16:21:48.665Z,43.70
2017-06-03T16:24:16.559Z,44.00
2017-06-03T16:26:44.510Z,44.00
2017-06-03T16:29:12.099Z,44.70
2017-06-03T16:31:40.490Z,43.90
2017-06-03T16:34:08.092Z,44.60
2017-06-03T16:36:35.973Z,43.70
2017-06-03T16:39:04.188Z,43.90
2017-06-03T16:41:31.711Z,43.90
2017-06-03T16:43:59.206Z,44.00
2017-06-03T16:46:26.757Z,44.60
2017-06-03T16:48:54.370Z,45.30
2017-06-03T16:51:21.872Z,45.90
2017-06-03T16:53:49.356Z,45.30
2017-06-03T16:56:16.904Z,45.20
2017-06-03T16:58:44.402Z,44.60
2017-06-03T17:01:12.007Z,45.00
2017-06-03T17:03:39.562Z,44.90
2017-06-03T17:06:07.050Z,44.70
2017-06-03T17:08:34.647Z,44.70
2017-06-03T17:11:02.655Z,43.90
2017-06-03T17:13:30.143Z,43.90
2017-06-03T17:15:57.645Z,44.30
2017-06-03T17:18:25.201Z,44.10
2017-06-03T17:20:52.697Z,45.90
2017-06-03T17:23:20.191Z,46.20
2017-06-03T17:25:48.675Z,46.20
2017-06-03T17:28:16.586Z,46.80
2017-06-03T17:30:44.137Z,46.80
2017-06-03T17:33:11.784Z,47.70
2017-06-03T17:35:39.281Z,47.70
2017-06-03T17:38:06.834Z,48.00
2017-06-03T17:40:34.341Z,47.70
2017-06-03T17:43:02.576Z,47.30
2017-06-03T17:45:30.087Z,47.30
2017-06-03T17:48:00.012Z,47.10
2017-06-03T17:50:27.560Z,46.80
2017-06-03T17:52:55.149Z,47.10
2017-06-03T17:55:22.701Z,46.10
2017-06-03T17:57:50.216Z,46.40
2017-06-03T18:00:17.924Z,46.70
2017-06-03T18:02:45.593Z,46.20
2017-06-03T18:05:13.349Z,46.40
2017-06-03T18:07:41.520Z,46.70
2017-06-03T18:10:09.536Z,45.90
2017-06-03T18:12:37.168Z,45.90
2017-06-03T18:15:04.680Z,46.10
2017-06-03T18:17:32.612Z,45.90
2017-06-03T18:20:00.370Z,45.90
2017-06-03T18:22:28.626Z,46.70
2017-06-03T18:24:56.165Z,47.70
2017-06-03T18:27:39.399Z,48.90
2017-06-03T18:30:06.944Z,50.50
2017-06-03T18:32:34.443Z,50.50
2017-06-03T18:35:01.944Z,50.80
2017-06-03T18:37:29.584Z,51.10
2017-06-03T18:39:57.081Z,50.90
2017-06-03T18:42:24.579Z,50.80
2017-06-03T18:44:52.546Z,50.80
2017-06-03T18:47:20.100Z,50.90
2017-06-03T18:49:47.909Z,50.20
2017-06-03T18:52:15.427Z,50.10
2017-06-03T18:54:42.916Z,51.20
2017-06-03T18:57:10.420Z,51.50
2017-06-03T18:59:37.941Z,52.10
2017-06-03T19:02:05.444Z,52.10
2017-06-03T19:04:32.949Z,52.30
2017-06-03T19:07:00.507Z,52.70
2017-06-03T19:09:28.052Z,53.20
2017-06-03T19:11:55.611Z,54.90
2017-06-03T19:14:23.131Z,54.50
2017-06-03T19:16:50.625Z,54.90
2017-06-03T19:19:18.125Z,55.50
2017-06-03T19:21:46.060Z,56.10
2017-06-03T19:24:13.548Z,56.10
2017-06-03T19:26:50.317Z,55.20
2017-06-03T19:29:23.196Z,55.20
2017-06-03T19:31:50.869Z,53.80
2017-06-03T19:34:18.370Z,54.20
2017-06-03T19:36:45.864Z,54.60
2017-06-03T19:39:13.406Z,54.60
2017-06-03T19:41:40.945Z,54.30
2017-06-03T19:44:08.438Z,54.90
2017-06-03T19:46:36.520Z,56.70
2017-06-03T19:49:04.072Z,56.70
2017-06-03T19:51:31.597Z,56.90
2017-06-03T19:54:02.968Z,57.30
2017-06-03T19:56:30.482Z,58.00
2017-06-03T19:58:58.037Z,57.90
2017-06-03T20:01:25.537Z,58.30
2017-06-03T20:03:53.028Z,58.60
2017-06-03T20:06:20.628Z,59.10
2017-06-03T20:08:48.123Z,58.60
2017-06-03T20:11:15.643Z,58.00
2017-06-03T20:13:43.199Z,58.60
2017-06-03T20:16:10.705Z,58.80
2017-06-03T20:18:38.436Z,59.20
2017-06-03T20:21:05.981Z,58.80
2017-06-03T20:23:33.476Z,59.10
2017-06-03T20:26:01.356Z,59.40
2017-06-03T20:28:29.668Z,59.40
2017-06-03T20:30:57.167Z,59.70
2017-06-03T20:33:24.702Z,60.00
2017-06-03T20:35:52.247Z,60.60
2017-06-03T20:38:19.819Z,61.00
2017-06-03T20:40:47.326Z,61.50
2017-06-03T20:43:14.940Z,62.10
2017-06-03T20:45:42.444Z,62.60
2017-06-03T20:48:09.939Z,62.80
2017-06-03T20:50:37.616Z,63.50
2017-06-03T20:53:05.117Z,64.20
2017-06-03T20:55:32.636Z,64.40
2017-06-03T20:58:00.256Z,64.60
2017-06-03T21:00:28.263Z,62.60
2017-06-03T21:02:55.769Z,62.60
2017-06-03T21:05:23.299Z,62.20
2017-06-03T21:07:50.793Z,60.10
2017-06-03T21:10:18.682Z,59.20
2017-06-03T21:12:46.204Z,59.20
2017-06-03T21:15:14.153Z,59.40
2017-06-03T21:17:41.667Z,59.40
2017-06-03T21:20:09.301Z,60.00
2017-06-03T21:22:36.808Z,60.10
2017-06-03T21:25:04.305Z,56.60
2017-06-03T21:27:31.849Z,57.90
2017-06-03T21:29:59.344Z,58.30
2017-06-03T21:32:27.239Z,59.40
2017-06-03T21:34:54.848Z,59.40
2017-06-03T21:37:22.756Z,59.20
2017-06-03T21:39:50.252Z,59.20
2017-06-03T21:42:17.795Z,56.90
2017-06-03T21:44:45.297Z,56.90
2017-06-03T21:47:12.791Z,56.90
2017-06-03T21:49:40.332Z,57.30
2017-06-03T21:52:08.245Z,57.20
2017-06-03T21:54:36.735Z,57.20
2017-06-03T21:57:05.117Z,59.70
2017-06-03T21:59:32.647Z,59.70
2017-06-03T22:02:00.132Z,59.50
2017-06-03T22:04:28.207Z,56.30
2017-06-03T22:06:55.700Z,59.40
2017-06-03T22:09:23.602Z,56.60
2017-06-03T22:11:51.161Z,56.60
2017-06-03T22:14:18.665Z,59.80
2017-06-03T22:16:46.160Z,57.60
2017-06-03T22:19:13.694Z,57.70
2017-06-03T22:21:41.197Z,58.50
2017-06-03T22:24:08.693Z,61.20
2017-06-03T22:26:36.246Z,57.90
2017-06-03T22:29:03.743Z,61.30
2017-06-03T22:31:31.236Z,56.00
2017-06-03T22:33:58.783Z,60.30
2017-06-03T22:36:26.284Z,59.10
2017-06-03T22:38:53.775Z,59.40
2017-06-03T22:41:21.700Z,60.00
2017-06-03T22:43:49.807Z,60.00
2017-06-03T22:46:17.712Z,63.70
2017-06-03T22:48:45.300Z,63.50
2017-06-03T22:51:12.790Z,62.80
2017-06-03T22:53:40.692Z,61.70
2017-06-03T22:56:08.282Z,61.50
2017-06-03T22:58:35.912Z,57.90
2017-06-03T23:01:03.435Z,63.30
2017-06-03T23:03:31.390Z,66.40
2017-06-03T23:05:58.898Z,66.40
2017-06-03T23:08:26.400Z,65.80
2017-06-03T23:10:53.958Z,67.10
2017-06-03T23:13:21.451Z,65.30
2017-06-03T23:15:48.948Z,67.30
2017-06-03T23:18:16.533Z,67.60
2017-06-03T23:20:44.027Z,66.20
2017-06-03T23:23:11.524Z,68.00
2017-06-03T23:25:39.288Z,67.60
2017-06-03T23:28:07.052Z,67.60
2017-06-03T23:30:34.550Z,68.70
2017-06-03T23:33:02.263Z,69.40
2017-06-03T23:35:29.785Z,71.20
2017-06-03T23:37:57.676Z,70.90
2017-06-03T23:40:25.216Z,70.90
2017-06-03T23:42:52.727Z,71.20
2017-06-03T23:45:20.244Z,69.20
2017-06-03T23:47:47.820Z,68.20
2017-06-03T23:50:15.313Z,71.90
2017-06-03T23:52:42.820Z,71.80
2017-06-03T23:55:10.353Z,72.80
2017-06-03T23:57:38.241Z,73.00
